createdAt,value
2019-03-27T00:00:07.793Z,102351.16
2019-03-27T00:02:36.336Z,102347.69
2019-03-27T00:05:04.901Z,102352.64
2019-03-27T00:07:33.212Z,102356.68
2019-03-27T00:10:01.773Z,102354.59
2019-03-27T00:12:30.365Z,102358.06
2019-03-27T00:15:11.600Z,102355.00
2019-03-27T00:17:28.693Z,102356.86
2019-03-27T00:19:57.052Z,102354.41
2019-03-27T00:22:25.384Z,102351.42
2019-03-27T00:24:53.699Z,102349.81
2019-03-27T00:27:22.276Z,102342.96
2019-03-27T00:29:50.560Z,102351.47
2019-03-27T00:32:18.865Z,102352.05
2019-03-27T00:34:47.153Z,102348.30
2019-03-27T00:37:15.472Z,102348.09
2019-03-27T00:39:43.783Z,102352.64
2019-03-27T00:42:12.083Z,102348.81
2019-03-27T00:44:40.442Z,102347.67
2019-03-27T00:47:08.749Z,102346.17
2019-03-27T00:49:37.101Z,102348.19
2019-03-27T00:52:05.377Z,102352.30
2019-03-27T00:54:33.670Z,102350.31
2019-03-27T00:57:01.994Z,102348.64
2019-03-27T00:59:30.290Z,102348.73
2019-03-27T01:01:58.586Z,102349.38
2019-03-27T01:04:27.229Z,102349.05
2019-03-27T01:06:55.526Z,102348.91
2019-03-27T01:09:24.087Z,102347.88
2019-03-27T01:11:52.371Z,102349.98
2019-03-27T01:14:20.685Z,102343.30
2019-03-27T01:16:48.975Z,102347.19
2019-03-27T01:19:17.255Z,102345.27
2019-03-27T01:21:45.579Z,102345.23
2019-03-27T01:24:13.885Z,102345.86
2019-03-27T01:26:42.193Z,102345.75
2019-03-27T01:29:10.531Z,102348.13
2019-03-27T01:31:38.862Z,102348.29
2019-03-27T01:34:07.149Z,102350.32
2019-03-27T01:36:35.444Z,102357.95
2019-03-27T01:39:05.399Z,102351.58
2019-03-27T01:41:33.698Z,102349.96
2019-03-27T01:44:02.016Z,102349.19
2019-03-27T01:46:30.410Z,102348.44
2019-03-27T01:48:59.068Z,102343.83
2019-03-27T01:51:27.360Z,102345.52
2019-03-27T01:53:55.697Z,102339.98
2019-03-27T01:56:23.993Z,102341.91
2019-03-27T01:58:52.327Z,102342.06
2019-03-27T02:01:21.214Z,102350.53
2019-03-27T02:03:49.857Z,102353.84
2019-03-27T02:06:18.436Z,102346.67
2019-03-27T02:08:47.031Z,102339.23
2019-03-27T02:11:15.322Z,102337.84
2019-03-27T02:13:43.716Z,102333.08
2019-03-27T02:16:12.013Z,102342.75
2019-03-27T02:18:40.321Z,102337.31
2019-03-27T02:21:08.623Z,102335.31
2019-03-27T02:23:37.302Z,102329.03
2019-03-27T02:26:05.601Z,102332.64
2019-03-27T02:28:33.928Z,102339.64
2019-03-27T02:31:02.345Z,102341.47
2019-03-27T02:33:30.668Z,102339.86
2019-03-27T02:35:58.963Z,102345.39
2019-03-27T02:38:27.292Z,102344.87
2019-03-27T02:40:55.851Z,102343.84
2019-03-27T02:43:24.159Z,102334.32
2019-03-27T02:45:52.476Z,102337.17
2019-03-27T02:48:20.782Z,102334.78
2019-03-27T02:50:49.091Z,102341.93
2019-03-27T02:53:17.744Z,102339.03
2019-03-27T02:55:46.322Z,102346.47
2019-03-27T02:58:14.614Z,102339.80
2019-03-27T03:00:42.927Z,102336.25
2019-03-27T03:03:11.230Z,102332.11
2019-03-27T03:05:39.554Z,102331.50
2019-03-27T03:08:08.110Z,102339.64
2019-03-27T03:10:36.442Z,102340.87
2019-03-27T03:13:04.789Z,102342.78
2019-03-27T03:15:33.116Z,102331.18
2019-03-27T03:18:01.738Z,102344.23
2019-03-27T03:20:30.042Z,102342.93
2019-03-27T03:22:58.356Z,102342.47
2019-03-27T03:25:26.754Z,102344.30
2019-03-27T03:27:55.343Z,102349.66
2019-03-27T03:30:23.673Z,102355.50
2019-03-27T03:32:52.001Z,102363.13
2019-03-27T03:35:20.308Z,102362.52
2019-03-27T03:37:48.972Z,102359.35
2019-03-27T03:40:17.484Z,102359.30
2019-03-27T03:42:45.799Z,102358.05
2019-03-27T03:45:14.438Z,102356.83
2019-03-27T03:47:42.827Z,102366.81
2019-03-27T03:50:14.638Z,102365.19
2019-03-27T03:52:45.779Z,102374.80
2019-03-27T03:55:13.048Z,102375.89
2019-03-27T03:57:41.563Z,102368.76
2019-03-27T04:00:10.043Z,102366.14
2019-03-27T04:02:38.373Z,102364.98
2019-03-27T04:05:07.658Z,102368.58
2019-03-27T04:07:36.304Z,102375.25
2019-03-27T04:10:06.640Z,102373.16
2019-03-27T04:12:34.960Z,102369.80
2019-03-27T04:15:03.449Z,102370.88
2019-03-27T04:17:31.771Z,102377.08
2019-03-27T04:20:00.175Z,102377.22
2019-03-27T04:22:28.744Z,102377.28
2019-03-27T04:24:57.070Z,102370.32
2019-03-27T04:27:25.373Z,102375.55
2019-03-27T04:29:53.691Z,102370.75
2019-03-27T04:32:22.001Z,102376.52
2019-03-27T04:34:50.312Z,102373.97
2019-03-27T04:37:18.684Z,102382.87
2019-03-27T04:39:47.001Z,102383.42
2019-03-27T04:42:15.605Z,102380.86
2019-03-27T04:44:43.918Z,102389.16
2019-03-27T04:47:12.217Z,102396.33
2019-03-27T04:51:27.371Z,102396.37
2019-03-27T04:53:55.682Z,102399.17
2019-03-27T04:56:23.985Z,102400.19
2019-03-27T04:58:52.289Z,102395.10
2019-03-27T05:01:20.607Z,102398.27
2019-03-27T05:03:49.545Z,102393.35
2019-03-27T05:06:17.866Z,102403.56
2019-03-27T05:08:46.519Z,102406.65
2019-03-27T05:11:14.834Z,102410.89
2019-03-27T05:13:43.135Z,102418.66
2019-03-27T05:16:11.425Z,102419.18
2019-03-27T05:18:39.739Z,102420.75
2019-03-27T05:21:08.041Z,102419.29
2019-03-27T05:23:36.366Z,102421.20
2019-03-27T05:26:04.959Z,102426.80
2019-03-27T05:28:33.267Z,102431.88
2019-03-27T05:31:01.566Z,102428.74
2019-03-27T05:33:32.521Z,102427.28
2019-03-27T05:35:59.940Z,102426.20
2019-03-27T05:38:28.254Z,102422.59
2019-03-27T05:40:56.546Z,102424.13
2019-03-27T05:43:24.885Z,102430.39
2019-03-27T05:45:53.181Z,102429.24
2019-03-27T05:48:21.499Z,102428.53
2019-03-27T05:50:50.032Z,102431.77
2019-03-27T05:53:18.322Z,102437.53
2019-03-27T05:55:46.631Z,102443.83
2019-03-27T05:58:15.341Z,102440.89
2019-03-27T06:00:43.658Z,102442.17
2019-03-27T06:03:11.962Z,102450.85
2019-03-27T06:05:40.292Z,102452.84
2019-03-27T06:08:08.647Z,102454.31
2019-03-27T06:10:36.980Z,102460.98
2019-03-27T06:13:05.279Z,102467.78
2019-03-27T06:15:33.583Z,102469.45
2019-03-27T06:18:12.563Z,102459.95
2019-03-27T06:20:32.270Z,102467.23
2019-03-27T06:23:00.677Z,102464.92
2019-03-27T06:25:28.975Z,102477.75
2019-03-27T06:27:57.273Z,102484.30
2019-03-27T06:30:25.880Z,102484.70
2019-03-27T06:32:54.187Z,102491.16
2019-03-27T06:35:22.830Z,102486.22
2019-03-27T06:37:51.141Z,102484.75
2019-03-27T06:40:19.432Z,102484.95
2019-03-27T06:42:47.750Z,102485.75
2019-03-27T06:45:16.209Z,102490.72
2019-03-27T06:47:44.835Z,102489.62
2019-03-27T06:50:13.216Z,102498.72
2019-03-27T06:52:41.519Z,102492.13
2019-03-27T06:55:09.907Z,102492.13
2019-03-27T06:57:38.214Z,102502.02
2019-03-27T07:00:10.247Z,102495.56
2019-03-27T07:02:38.891Z,102489.02
2019-03-27T07:05:07.330Z,102483.25
2019-03-27T07:07:35.632Z,102486.47
2019-03-27T07:10:07.842Z,102486.97
2019-03-27T07:12:36.152Z,102495.83
2019-03-27T07:15:05.597Z,102498.17
2019-03-27T07:17:33.894Z,102491.53
2019-03-27T07:20:02.383Z,102490.40
2019-03-27T07:22:30.664Z,102499.41
2019-03-27T07:24:58.967Z,102491.42
2019-03-27T07:27:27.269Z,102497.07
2019-03-27T07:29:55.613Z,102492.73
2019-03-27T07:32:24.250Z,102492.19
2019-03-27T07:34:52.566Z,102492.73
2019-03-27T07:37:20.977Z,102508.95
2019-03-27T07:39:49.349Z,102512.05
2019-03-27T07:42:17.982Z,102515.63
2019-03-27T07:44:46.605Z,102518.61
2019-03-27T07:47:15.233Z,102513.17
2019-03-27T07:49:43.540Z,102518.81
2019-03-27T07:52:11.856Z,102526.02
2019-03-27T07:54:40.482Z,102527.14
2019-03-27T07:57:08.802Z,102526.26
2019-03-27T07:59:37.084Z,102534.30
2019-03-27T08:02:05.390Z,102525.83
2019-03-27T08:04:33.682Z,102527.67
2019-03-27T08:07:01.993Z,102531.39
2019-03-27T08:09:30.308Z,102537.80
2019-03-27T08:11:58.925Z,102530.14
2019-03-27T08:14:27.244Z,102533.52
2019-03-27T08:16:55.546Z,102541.16
2019-03-27T08:19:23.867Z,102535.61
2019-03-27T08:21:52.170Z,102538.89
2019-03-27T08:24:20.822Z,102540.01
2019-03-27T08:26:49.122Z,102536.41
2019-03-27T08:29:17.518Z,102542.53
2019-03-27T08:31:45.809Z,102541.41
2019-03-27T08:34:14.539Z,102537.78
2019-03-27T08:36:43.114Z,102538.42
2019-03-27T08:39:11.450Z,102543.11
2019-03-27T08:41:39.757Z,102551.36
2019-03-27T08:44:08.052Z,102548.97
2019-03-27T08:46:36.343Z,102547.88
2019-03-27T08:49:05.017Z,102548.84
2019-03-27T08:51:33.327Z,102546.94
2019-03-27T08:54:01.981Z,102553.88
2019-03-27T08:56:30.563Z,102549.95
2019-03-27T08:58:58.876Z,102549.73
2019-03-27T09:01:27.197Z,102553.11
2019-03-27T09:03:55.518Z,102559.30
2019-03-27T09:06:33.683Z,102559.97
2019-03-27T09:08:54.131Z,102557.05
2019-03-27T09:11:22.451Z,102543.91
2019-03-27T09:13:50.722Z,102550.92
2019-03-27T09:16:19.327Z,102556.12
2019-03-27T09:18:47.915Z,102554.16
2019-03-27T09:21:16.302Z,102559.72
2019-03-27T09:23:45.840Z,102568.91
2019-03-27T09:26:14.386Z,102569.00
2019-03-27T09:28:42.702Z,102559.57
2019-03-27T09:31:11.036Z,102557.39
2019-03-27T09:33:39.615Z,102554.32
2019-03-27T09:36:08.001Z,102551.60
2019-03-27T09:38:36.664Z,102566.47
2019-03-27T09:41:05.230Z,102566.42
2019-03-27T09:43:33.554Z,102566.66
2019-03-27T09:46:01.858Z,102564.90
2019-03-27T09:48:30.179Z,102569.02
2019-03-27T09:50:58.491Z,102566.94
2019-03-27T09:53:26.904Z,102573.48
2019-03-27T09:55:55.200Z,102569.61
2019-03-27T09:58:23.591Z,102575.28
2019-03-27T10:00:56.597Z,102574.62
2019-03-27T10:03:25.194Z,102579.73
2019-03-27T10:05:53.599Z,102580.58
2019-03-27T10:08:21.961Z,102579.73
2019-03-27T10:10:50.872Z,102579.89
2019-03-27T10:13:19.732Z,102575.19
2019-03-27T10:15:48.307Z,102570.39
2019-03-27T10:18:16.710Z,102577.75
2019-03-27T10:20:45.123Z,102572.87
2019-03-27T10:23:13.406Z,102579.93
2019-03-27T10:25:41.733Z,102576.38
2019-03-27T10:28:10.033Z,102577.91
2019-03-27T10:30:38.409Z,102577.98
2019-03-27T10:33:06.715Z,102584.04
2019-03-27T10:35:35.332Z,102579.77
2019-03-27T10:38:03.636Z,102581.62
2019-03-27T10:40:32.215Z,102574.81
2019-03-27T10:43:00.891Z,102575.98
2019-03-27T10:45:29.177Z,102580.14
2019-03-27T10:47:57.906Z,102581.73
2019-03-27T10:50:26.221Z,102577.09
2019-03-27T10:52:54.544Z,102571.97
2019-03-27T10:55:22.834Z,102572.45
2019-03-27T10:57:51.469Z,102571.38
2019-03-27T11:00:19.791Z,102570.86
2019-03-27T11:02:48.124Z,102570.55
2019-03-27T11:05:16.415Z,102569.31
2019-03-27T11:07:45.053Z,102573.66
2019-03-27T11:10:13.703Z,102572.62
2019-03-27T11:12:42.076Z,102581.59
2019-03-27T11:15:10.995Z,102578.34
2019-03-27T11:17:39.308Z,102585.53
2019-03-27T11:20:08.269Z,102583.36
2019-03-27T11:22:36.881Z,102581.23
2019-03-27T11:25:06.853Z,102582.60
2019-03-27T11:27:35.132Z,102584.70
2019-03-27T11:30:08.440Z,102580.03
2019-03-27T11:32:37.073Z,102582.31
2019-03-27T11:35:05.646Z,102575.23
2019-03-27T11:37:33.946Z,102575.36
2019-03-27T11:40:02.719Z,102572.21
2019-03-27T11:42:31.038Z,102572.84
2019-03-27T11:44:59.672Z,102573.09
2019-03-27T11:47:28.351Z,102565.13
2019-03-27T11:49:56.659Z,102561.25
2019-03-27T11:52:24.972Z,102564.28
2019-03-27T11:54:53.275Z,102562.33
2019-03-27T11:57:21.592Z,102565.43
2019-03-27T11:59:54.322Z,102555.56
2019-03-27T12:02:19.926Z,102558.47
2019-03-27T12:04:48.246Z,102550.17
2019-03-27T12:07:16.550Z,102550.52
2019-03-27T12:09:44.891Z,102556.20
2019-03-27T12:12:13.193Z,102554.53
2019-03-27T12:14:41.758Z,102550.21
2019-03-27T12:17:10.052Z,102541.08
2019-03-27T12:19:38.381Z,102543.61
2019-03-27T12:22:06.685Z,102537.59
2019-03-27T12:24:35.373Z,102542.04
2019-03-27T12:27:03.749Z,102537.97
2019-03-27T12:29:32.065Z,102536.38
2019-03-27T12:32:00.700Z,102536.87
2019-03-27T12:34:29.015Z,102536.98
2019-03-27T12:36:57.300Z,102533.39
2019-03-27T12:39:25.611Z,102535.41
2019-03-27T12:41:53.931Z,102533.84
2019-03-27T12:44:22.231Z,102536.77
2019-03-27T12:46:51.964Z,102534.09
2019-03-27T12:49:20.369Z,102538.16
2019-03-27T12:51:48.666Z,102533.55
2019-03-27T12:54:17.090Z,102528.50
2019-03-27T12:56:45.403Z,102534.98
2019-03-27T12:59:13.689Z,102535.72
2019-03-27T13:01:42.266Z,102538.25
2019-03-27T13:04:10.549Z,102531.78
2019-03-27T13:06:38.878Z,102528.88
2019-03-27T13:09:07.844Z,102521.24
2019-03-27T13:11:36.946Z,102531.68
2019-03-27T13:14:05.346Z,102529.59
2019-03-27T13:16:33.653Z,102522.97
2019-03-27T13:19:01.941Z,102524.66
2019-03-27T13:21:30.251Z,102531.20
2019-03-27T13:23:58.572Z,102536.51
2019-03-27T13:26:26.895Z,102537.40
2019-03-27T13:28:55.190Z,102529.61
2019-03-27T13:31:23.559Z,102538.45
2019-03-27T13:33:51.885Z,102540.86
2019-03-27T13:36:20.193Z,102534.36
2019-03-27T13:38:48.516Z,102535.56
2019-03-27T13:41:16.862Z,102545.03
2019-03-27T13:43:45.526Z,102546.10
2019-03-27T13:46:13.838Z,102538.41
2019-03-27T13:48:42.150Z,102535.90
2019-03-27T13:51:10.440Z,102530.35
2019-03-27T13:53:38.729Z,102533.23
2019-03-27T13:56:07.037Z,102531.62
2019-03-27T13:58:35.341Z,102534.11
2019-03-27T14:01:03.722Z,102539.30
2019-03-27T14:03:32.071Z,102535.76
2019-03-27T14:06:00.402Z,102534.64
2019-03-27T14:08:29.210Z,102534.78
2019-03-27T14:10:57.912Z,102528.06
2019-03-27T14:13:26.324Z,102528.55
2019-03-27T14:15:54.630Z,102530.17
2019-03-27T14:18:22.946Z,102526.98
2019-03-27T14:20:51.276Z,102525.39
2019-03-27T14:23:19.588Z,102526.65
2019-03-27T14:25:47.915Z,102531.60
2019-03-27T14:28:16.560Z,102526.30
2019-03-27T14:30:52.555Z,102525.40
2019-03-27T14:33:21.321Z,102525.40
2019-03-27T14:35:49.625Z,102525.70
2019-03-27T14:38:18.184Z,102529.77
2019-03-27T14:40:46.568Z,102518.36
2019-03-27T14:43:14.879Z,102530.27
2019-03-27T14:45:43.485Z,102531.59
2019-03-27T14:48:12.076Z,102528.21
2019-03-27T14:50:40.371Z,102527.88
2019-03-27T14:53:08.674Z,102524.66
2019-03-27T14:55:36.964Z,102524.66
2019-03-27T14:58:05.596Z,102524.17
2019-03-27T15:00:33.914Z,102530.19
2019-03-27T15:03:02.545Z,102523.75
2019-03-27T15:05:31.156Z,102521.00
2019-03-27T15:07:59.441Z,102524.74
2019-03-27T15:10:27.937Z,102525.47
2019-03-27T15:12:56.223Z,102525.00
2019-03-27T15:15:24.589Z,102527.94
2019-03-27T15:17:52.944Z,102527.95
2019-03-27T15:20:21.255Z,102531.78
2019-03-27T15:22:49.560Z,102525.66
2019-03-27T15:25:17.854Z,102526.73
2019-03-27T15:27:46.206Z,102524.41
2019-03-27T15:30:15.125Z,102522.23
2019-03-27T15:32:43.942Z,102521.35
2019-03-27T15:35:12.327Z,102526.80
2019-03-27T15:37:40.646Z,102531.00
2019-03-27T15:40:09.388Z,102517.87
2019-03-27T15:42:37.693Z,102522.93
2019-03-27T15:45:08.674Z,102527.03
2019-03-27T15:47:37.006Z,102527.86
2019-03-27T15:50:06.829Z,102526.70
2019-03-27T15:52:36.644Z,102518.05
2019-03-27T15:55:05.548Z,102522.56
2019-03-27T15:57:34.222Z,102521.39
2019-03-27T16:00:03.661Z,102526.00
2019-03-27T16:02:32.082Z,102519.29
2019-03-27T16:05:00.510Z,102516.16
2019-03-27T16:07:31.257Z,102520.27
2019-03-27T16:09:59.148Z,102521.00
2019-03-27T16:12:27.434Z,102520.38
2019-03-27T16:14:55.749Z,102516.05
2019-03-27T16:17:24.064Z,102510.66
2019-03-27T16:19:52.729Z,102512.67
2019-03-27T16:22:21.319Z,102502.23
2019-03-27T16:24:49.645Z,102505.95
2019-03-27T16:27:18.171Z,102500.07
2019-03-27T16:29:46.482Z,102509.33
2019-03-27T16:32:14.795Z,102506.82
2019-03-27T16:34:43.347Z,102503.69
2019-03-27T16:37:11.664Z,102504.90
2019-03-27T16:39:39.959Z,102509.83
2019-03-27T16:42:08.266Z,102511.64
2019-03-27T16:44:36.559Z,102511.87
2019-03-27T16:47:05.065Z,102518.61
2019-03-27T16:49:33.705Z,102514.89
2019-03-27T16:52:02.383Z,102513.70
2019-03-27T16:54:30.672Z,102516.20
2019-03-27T16:56:58.983Z,102513.79
2019-03-27T16:59:27.325Z,102514.53
2019-03-27T17:01:56.215Z,102518.48
2019-03-27T17:04:24.529Z,102515.47
2019-03-27T17:06:52.838Z,102515.71
2019-03-27T17:09:21.478Z,102516.88
2019-03-27T17:11:49.725Z,102515.79
2019-03-27T17:14:18.046Z,102520.72
2019-03-27T17:16:46.372Z,102517.38
2019-03-27T17:19:14.956Z,102511.84
2019-03-27T17:21:43.964Z,102518.19
2019-03-27T17:24:12.634Z,102526.09
2019-03-27T17:26:40.938Z,102524.03
2019-03-27T17:29:09.256Z,102530.38
2019-03-27T17:31:37.558Z,102530.00
2019-03-27T17:34:05.862Z,102532.95
2019-03-27T17:36:34.221Z,102527.19
2019-03-27T17:39:02.549Z,102528.80
2019-03-27T17:41:30.896Z,102530.12
2019-03-27T17:43:59.142Z,102529.73
2019-03-27T17:46:27.463Z,102531.01
2019-03-27T17:48:56.024Z,102533.52
2019-03-27T17:51:24.366Z,102535.53
2019-03-27T17:53:52.679Z,102532.77
2019-03-27T17:56:21.346Z,102537.52
2019-03-27T17:58:49.649Z,102538.82
2019-03-27T18:01:17.969Z,102536.48
2019-03-27T18:03:46.589Z,102534.20
2019-03-27T18:06:14.909Z,102542.42
2019-03-27T18:08:43.194Z,102541.80
2019-03-27T18:11:11.535Z,102544.20
2019-03-27T18:13:39.851Z,102536.02
2019-03-27T18:16:08.173Z,102541.99
2019-03-27T18:18:36.466Z,102541.99
2019-03-27T18:21:05.649Z,102538.52
2019-03-27T18:23:45.342Z,102544.63
2019-03-27T18:26:04.238Z,102537.91
2019-03-27T18:28:32.554Z,102544.29
2019-03-27T18:31:00.857Z,102547.05
2019-03-27T18:33:29.260Z,102554.58
2019-03-27T18:35:57.962Z,102543.79
2019-03-27T18:38:26.273Z,102547.00
2019-03-27T18:40:54.951Z,102543.62
2019-03-27T18:43:23.265Z,102545.89
2019-03-27T18:45:51.611Z,102547.69
2019-03-27T18:48:19.903Z,102549.14
2019-03-27T18:50:48.540Z,102554.64
2019-03-27T18:53:17.122Z,102549.38
2019-03-27T18:55:45.446Z,102559.20
2019-03-27T18:58:13.745Z,102561.00
2019-03-27T19:00:42.074Z,102559.77
2019-03-27T19:03:10.639Z,102565.53
2019-03-27T19:05:38.959Z,102570.44
2019-03-27T19:08:07.602Z,102563.73
2019-03-27T19:10:35.931Z,102572.59
2019-03-27T19:13:04.218Z,102574.48
2019-03-27T19:15:32.549Z,102578.35
2019-03-27T19:18:00.859Z,102581.23
2019-03-27T19:20:29.356Z,102578.59
2019-03-27T19:22:57.688Z,102579.07
2019-03-27T19:25:26.018Z,102574.76
2019-03-27T19:27:54.308Z,102581.92
2019-03-27T19:30:22.702Z,102579.41
2019-03-27T19:32:51.022Z,102585.03
2019-03-27T19:35:19.330Z,102584.20
2019-03-27T19:37:47.644Z,102580.98
2019-03-27T19:40:16.252Z,102576.16
2019-03-27T19:42:44.912Z,102579.41
2019-03-27T19:45:13.279Z,102578.66
2019-03-27T19:47:41.612Z,102581.98
2019-03-27T19:50:10.269Z,102581.50
2019-03-27T19:52:38.581Z,102578.63
2019-03-27T19:55:07.162Z,102579.95
2019-03-27T19:57:35.481Z,102586.29
2019-03-27T20:00:08.628Z,102586.20
2019-03-27T20:02:36.946Z,102582.25
2019-03-27T20:05:07.401Z,102585.36
2019-03-27T20:07:36.454Z,102586.68
2019-03-27T20:10:06.458Z,102584.52
2019-03-27T20:12:34.929Z,102586.20
2019-03-27T20:15:11.702Z,102579.70
2019-03-27T20:17:34.420Z,102585.58
2019-03-27T20:20:02.731Z,102583.03
2019-03-27T20:22:31.030Z,102582.94
2019-03-27T20:24:59.382Z,102580.39
2019-03-27T20:27:27.685Z,102590.37
2019-03-27T20:29:56.029Z,102593.27
2019-03-27T20:32:24.320Z,102582.61
2019-03-27T20:34:52.654Z,102585.99
2019-03-27T20:37:20.964Z,102591.63
2019-03-27T20:39:49.286Z,102594.74
2019-03-27T20:42:17.600Z,102595.58
2019-03-27T20:44:46.182Z,102594.38
2019-03-27T20:47:14.482Z,102597.38
2019-03-27T20:49:42.824Z,102590.91
2019-03-27T20:52:11.138Z,102596.75
2019-03-27T20:54:39.453Z,102601.55
2019-03-27T20:57:08.043Z,102596.84
2019-03-27T20:59:36.334Z,102596.95
2019-03-27T21:02:04.714Z,102598.40
2019-03-27T21:04:33.025Z,102595.28
2019-03-27T21:07:01.347Z,102601.39
2019-03-27T21:09:29.674Z,102598.75
2019-03-27T21:11:58.010Z,102604.12
2019-03-27T21:14:26.816Z,102603.28
2019-03-27T21:16:55.146Z,102600.64
2019-03-27T21:19:23.444Z,102600.64
2019-03-27T21:21:56.753Z,102594.44
2019-03-27T21:24:25.062Z,102595.77
2019-03-27T21:26:53.393Z,102602.71
2019-03-27T21:29:21.985Z,102599.72
2019-03-27T21:31:50.695Z,102606.19
2019-03-27T21:34:19.370Z,102600.80
2019-03-27T21:36:47.957Z,102601.75
2019-03-27T21:39:16.320Z,102603.91
2019-03-27T21:41:44.644Z,102613.05
2019-03-27T21:44:12.995Z,102605.62
2019-03-27T21:46:41.339Z,102604.87
2019-03-27T21:50:37.434Z,102605.98
2019-03-27T21:53:05.770Z,102613.34
2019-03-27T21:55:42.608Z,102612.03
2019-03-27T21:58:04.225Z,102608.67
2019-03-27T22:00:39.580Z,102615.47
2019-03-27T22:03:08.331Z,102614.24
2019-03-27T22:05:36.681Z,102611.72
2019-03-27T22:08:05.175Z,102612.68
2019-03-27T22:10:33.528Z,102610.88
2019-03-27T22:13:01.847Z,102611.72
2019-03-27T22:15:30.706Z,102617.47
2019-03-27T22:17:59.399Z,102623.59
2019-03-27T22:20:27.732Z,102621.31
2019-03-27T22:22:56.118Z,102626.49
2019-03-27T22:25:35.231Z,102629.13
2019-03-27T22:27:54.526Z,102631.38
2019-03-27T22:30:22.847Z,102631.38
2019-03-27T22:32:51.191Z,102634.41
2019-03-27T22:35:19.507Z,102633.08
2019-03-27T22:37:48.164Z,102639.08
2019-03-27T22:40:16.755Z,102637.67
2019-03-27T22:42:45.104Z,102634.91
2019-03-27T22:45:13.695Z,102641.90
2019-03-27T22:47:42.028Z,102640.45
2019-03-27T22:50:10.670Z,102640.73
2019-03-27T22:52:39.116Z,102637.26
2019-03-27T22:55:08.143Z,102635.66
2019-03-27T22:57:36.489Z,102640.58
2019-03-27T23:00:09.752Z,102635.03
2019-03-27T23:02:38.107Z,102634.77
2019-03-27T23:05:07.684Z,102628.38
2019-03-27T23:07:36.286Z,102629.91
2019-03-27T23:10:06.369Z,102630.11
2019-03-27T23:12:34.687Z,102630.70
2019-03-27T23:15:03.207Z,102638.13
2019-03-27T23:17:31.852Z,102628.27
2019-03-27T23:20:00.358Z,102637.58
2019-03-27T23:22:29.125Z,102635.91
2019-03-27T23:24:57.452Z,102637.79
2019-03-27T23:27:25.765Z,102640.06
2019-03-27T23:29:54.104Z,102641.98
2019-03-27T23:32:22.848Z,102636.80
2019-03-27T23:34:51.236Z,102636.44
2019-03-27T23:37:19.803Z,102636.27
2019-03-27T23:39:48.586Z,102632.52
2019-03-27T23:42:16.913Z,102633.20
2019-03-27T23:44:45.546Z,102631.50
2019-03-27T23:47:13.872Z,102635.92
2019-03-27T23:49:42.226Z,102630.30
2019-03-27T23:52:10.564Z,102634.33
2019-03-27T23:54:39.173Z,102633.61
2019-03-27T23:57:07.499Z,102637.64
2019-03-27T23:59:35.830Z,102632.02
